createdAt,value
2022-10-25T00:05:07.809Z,86.02
2022-10-25T00:10:29.058Z,86.18
2022-10-25T00:15:49.367Z,86.33
2022-10-25T00:21:10.041Z,86.46
2022-10-25T00:26:30.979Z,86.45
2022-10-25T00:31:52.959Z,86.76
2022-10-25T00:37:13.590Z,86.52
2022-10-25T00:42:34.193Z,86.68
2022-10-25T00:47:57.728Z,86.53
2022-10-25T00:53:38.705Z,86.82
2022-10-25T00:59:03.190Z,86.68
2022-10-25T01:04:26.183Z,86.72
2022-10-25T01:09:47.678Z,86.71
2022-10-25T01:15:08.641Z,86.98
2022-10-25T01:20:54.959Z,86.94
2022-10-25T01:26:59.177Z,87.34
2022-10-25T01:32:35.179Z,87.17
2022-10-25T01:38:08.387Z,87.52
2022-10-25T01:43:48.766Z,87.36
2022-10-25T01:49:14.848Z,87.33
2022-10-25T01:54:35.314Z,87.05
2022-10-25T02:00:04.291Z,86.94
2022-10-25T02:05:42.916Z,86.85
2022-10-25T02:11:22.034Z,87.10
2022-10-25T02:17:07.607Z,87.34
2022-10-25T02:22:32.409Z,87.31
2022-10-25T02:27:54.108Z,86.88
2022-10-25T02:33:14.567Z,86.54
2022-10-25T02:38:35.254Z,86.69
2022-10-25T02:43:55.826Z,86.56
2022-10-25T02:49:16.520Z,86.54
2022-10-25T02:54:36.820Z,86.67
2022-10-25T02:59:57.504Z,86.82
2022-10-25T03:05:18.303Z,86.67
2022-10-25T03:10:38.988Z,86.67
2022-10-25T03:15:59.727Z,86.60
2022-10-25T03:21:20.143Z,86.41
2022-10-25T03:26:40.727Z,86.59
2022-10-25T03:32:01.196Z,86.63
2022-10-25T03:37:22.180Z,86.92
2022-10-25T03:42:43.298Z,86.48
2022-10-25T03:48:04.084Z,86.41
2022-10-25T03:53:24.790Z,86.60
2022-10-25T03:58:45.385Z,86.52
2022-10-25T04:04:06.018Z,86.28
2022-10-25T04:09:26.543Z,86.54
2022-10-25T04:14:47.067Z,86.22
2022-10-25T04:20:08.409Z,86.00
2022-10-25T04:25:29.170Z,85.87
2022-10-25T04:30:49.616Z,85.98
2022-10-25T04:36:10.333Z,86.12
2022-10-25T04:41:31.433Z,85.83
2022-10-25T04:46:52.154Z,85.58
2022-10-25T04:52:13.168Z,85.62
2022-10-25T04:57:33.613Z,85.42
2022-10-25T05:02:55.189Z,85.46
2022-10-25T05:08:15.939Z,85.56
2022-10-25T05:13:37.603Z,85.59
2022-10-25T05:18:58.114Z,85.46
2022-10-25T05:24:18.830Z,85.42
2022-10-25T05:29:39.221Z,85.22
2022-10-25T05:34:59.796Z,85.10
2022-10-25T05:40:20.352Z,84.98
2022-10-25T05:45:40.681Z,85.00
2022-10-25T05:51:32.395Z,85.09
2022-10-25T05:56:54.184Z,84.75
2022-10-25T06:02:15.052Z,84.77
2022-10-25T06:07:35.942Z,84.97
2022-10-25T06:12:56.730Z,85.18
2022-10-25T06:18:17.443Z,84.98
2022-10-25T06:23:38.592Z,85.14
2022-10-25T06:29:02.064Z,84.99
2022-10-25T06:34:22.460Z,84.92
2022-10-25T06:39:43.125Z,84.80
2022-10-25T06:45:04.149Z,84.74
2022-10-25T06:50:24.883Z,84.71
2022-10-25T06:55:47.206Z,84.54
2022-10-25T07:01:11.663Z,84.63
2022-10-25T07:06:35.804Z,84.57
2022-10-25T07:11:56.783Z,84.41
2022-10-25T07:17:17.455Z,84.08
2022-10-25T07:22:38.259Z,84.00
2022-10-25T07:27:58.659Z,83.95
2022-10-25T07:33:20.130Z,83.82
2022-10-25T07:38:40.781Z,83.98
2022-10-25T07:44:01.315Z,84.41
2022-10-25T07:49:22.068Z,84.65
2022-10-25T07:54:44.706Z,84.86
2022-10-25T08:00:07.306Z,84.82
2022-10-25T08:05:28.048Z,84.57
2022-10-25T08:10:49.051Z,84.57
2022-10-25T08:16:10.014Z,84.66
2022-10-25T08:21:31.119Z,84.62
2022-10-25T08:26:51.494Z,84.33
2022-10-25T08:32:12.115Z,84.11
2022-10-25T08:37:32.810Z,83.28
2022-10-25T08:42:59.318Z,83.31
2022-10-25T08:48:24.206Z,82.95
2022-10-25T08:53:50.212Z,82.19
2022-10-25T08:59:19.575Z,81.95
2022-10-25T09:04:39.863Z,81.43
2022-10-25T09:10:19.133Z,80.81
2022-10-25T09:15:54.771Z,79.93
2022-10-25T09:21:22.944Z,80.07
2022-10-25T09:26:54.167Z,78.92
2022-10-25T09:32:21.629Z,78.05
2022-10-25T09:37:48.358Z,77.08
2022-10-25T09:43:17.185Z,76.89
2022-10-25T09:48:48.469Z,76.74
2022-10-25T09:54:35.011Z,76.08
2022-10-25T09:59:55.605Z,75.61
2022-10-25T10:05:18.882Z,71.18
2022-10-25T10:24:57.873Z,74.11
2022-10-25T10:30:28.916Z,75.35
2022-10-25T10:35:54.908Z,74.89
2022-10-25T10:41:23.916Z,73.75
2022-10-25T10:46:46.043Z,72.38
2022-10-25T10:52:27.425Z,70.60
2022-10-25T10:57:48.444Z,70.22
2022-10-25T11:03:48.788Z,68.59
2022-10-25T11:09:24.950Z,67.42
2022-10-25T11:14:47.841Z,66.19
2022-10-25T11:20:33.286Z,67.82
2022-10-25T11:26:13.616Z,63.28
2022-10-25T11:32:01.775Z,61.29
2022-10-25T11:37:31.408Z,59.68
2022-10-25T11:43:31.360Z,57.90
2022-10-25T11:49:21.578Z,57.36
2022-10-25T11:54:50.363Z,56.10
2022-10-25T12:00:21.365Z,56.39
2022-10-25T12:06:12.394Z,57.25
2022-10-25T12:11:45.045Z,59.81
2022-10-25T12:17:24.723Z,62.03
2022-10-25T12:22:49.029Z,62.17
2022-10-25T12:28:14.552Z,63.97
2022-10-25T12:33:40.875Z,64.95
2022-10-25T12:39:04.700Z,61.89
2022-10-25T12:44:49.910Z,58.31
2022-10-25T12:50:41.638Z,56.16
2022-10-25T12:56:31.245Z,57.34
2022-10-25T13:02:00.682Z,57.53
2022-10-25T13:07:23.267Z,59.40
2022-10-25T13:13:00.319Z,61.02
2022-10-25T13:18:45.501Z,63.84
2022-10-25T13:24:08.795Z,65.10
2022-10-25T13:29:48.856Z,65.24
2022-10-25T13:35:21.988Z,67.66
2022-10-25T13:40:42.357Z,68.61
2022-10-25T13:46:03.198Z,69.56
2022-10-25T13:51:24.493Z,69.55
2022-10-25T13:56:53.527Z,69.84
2022-10-25T14:02:19.239Z,69.90
2022-10-25T14:07:44.911Z,69.87
2022-10-25T14:13:16.140Z,69.82
2022-10-25T14:18:36.842Z,69.82
2022-10-25T14:23:58.164Z,70.27
2022-10-25T14:29:21.523Z,71.11
2022-10-25T14:34:48.759Z,71.72
2022-10-25T14:40:22.060Z,71.88
2022-10-25T14:45:55.246Z,72.41
2022-10-25T14:51:21.743Z,73.15
2022-10-25T14:56:49.827Z,73.47
2022-10-25T15:02:25.823Z,73.85
2022-10-25T15:07:49.038Z,74.42
2022-10-25T15:13:19.970Z,74.28
2022-10-25T15:18:42.569Z,74.54
2022-10-25T15:24:15.390Z,75.49
2022-10-25T15:29:42.351Z,75.20
2022-10-25T15:35:03.485Z,75.40
2022-10-25T15:40:24.332Z,75.51
2022-10-25T15:45:45.429Z,75.43
2022-10-25T15:51:06.188Z,75.61
2022-10-25T15:56:26.878Z,76.04
2022-10-25T16:01:51.015Z,76.19
2022-10-25T16:07:12.817Z,76.67
2022-10-25T16:12:34.177Z,76.91
2022-10-25T16:17:54.927Z,77.10
2022-10-25T16:23:17.210Z,77.31
2022-10-25T16:28:40.484Z,77.60
2022-10-25T16:34:01.148Z,77.86
2022-10-25T16:39:21.799Z,78.02
2022-10-25T16:44:42.171Z,77.69
2022-10-25T16:50:02.694Z,78.27
2022-10-25T16:55:23.792Z,78.21
2022-10-25T17:00:44.789Z,78.69
2022-10-25T17:06:22.152Z,78.74
2022-10-25T17:11:47.372Z,78.77
2022-10-25T17:17:08.131Z,78.94
2022-10-25T17:22:28.687Z,78.79
2022-10-25T17:27:53.750Z,79.09
2022-10-25T17:33:14.146Z,79.25
2022-10-25T17:38:35.290Z,78.98
2022-10-25T17:43:56.873Z,79.30
2022-10-25T17:49:17.428Z,79.11
2022-10-25T17:54:39.252Z,79.34
2022-10-25T17:59:59.752Z,79.38
2022-10-25T18:05:21.718Z,79.64
2022-10-25T18:10:42.342Z,79.65
2022-10-25T18:16:03.758Z,79.23
2022-10-25T18:21:24.357Z,79.37
2022-10-25T18:26:44.805Z,79.25
2022-10-25T18:32:05.529Z,79.23
2022-10-25T18:37:26.177Z,79.48
2022-10-25T18:42:46.554Z,79.64
2022-10-25T18:48:07.274Z,79.44
2022-10-25T18:53:27.749Z,79.91
2022-10-25T18:58:48.178Z,79.92
2022-10-25T19:04:08.949Z,80.00
2022-10-25T19:09:29.580Z,80.06
2022-10-25T19:14:50.263Z,80.48
2022-10-25T19:20:11.185Z,80.26
2022-10-25T19:25:32.034Z,80.35
2022-10-25T19:30:52.464Z,80.69
2022-10-25T19:36:13.472Z,80.70
2022-10-25T19:41:34.210Z,80.79
2022-10-25T19:46:54.610Z,80.99
2022-10-25T19:52:15.204Z,81.09
2022-10-25T19:57:35.816Z,81.08
2022-10-25T20:02:56.531Z,81.26
2022-10-25T20:08:16.841Z,81.13
2022-10-25T20:13:37.498Z,81.57
2022-10-25T20:19:00.691Z,81.42
2022-10-25T20:24:21.583Z,81.50
2022-10-25T20:29:41.847Z,81.54
2022-10-25T20:40:27.516Z,81.77
2022-10-25T20:45:50.400Z,81.85
2022-10-25T20:51:14.628Z,82.06
2022-10-25T20:56:37.179Z,81.96
2022-10-25T21:01:57.629Z,81.94
2022-10-25T21:07:18.655Z,82.27
2022-10-25T21:12:39.246Z,82.17
2022-10-25T21:17:59.848Z,82.31
2022-10-25T21:23:20.596Z,82.38
2022-10-25T21:28:41.632Z,82.29
2022-10-25T21:34:04.156Z,82.05
2022-10-25T21:39:24.896Z,81.90
2022-10-25T21:44:45.174Z,82.14
2022-10-25T21:50:09.116Z,82.29
2022-10-25T21:55:29.585Z,82.17
2022-10-25T22:00:50.315Z,81.73
2022-10-25T22:06:16.233Z,81.99
2022-10-25T22:11:38.735Z,82.04
2022-10-25T22:16:59.387Z,82.02
2022-10-25T22:22:20.187Z,82.15
2022-10-25T22:27:40.565Z,82.58
2022-10-25T22:33:01.041Z,82.69
2022-10-25T22:38:21.754Z,83.00
2022-10-25T22:43:43.733Z,83.05
2022-10-25T22:49:07.154Z,83.29
2022-10-25T22:54:27.694Z,83.69
2022-10-25T22:59:48.106Z,83.69
2022-10-25T23:05:09.110Z,84.09
2022-10-25T23:10:29.729Z,84.33
2022-10-25T23:15:50.243Z,84.32
2022-10-25T23:21:17.210Z,84.46
2022-10-25T23:26:38.789Z,84.57
2022-10-25T23:31:59.115Z,84.89
2022-10-25T23:37:19.390Z,85.01
2022-10-25T23:42:39.725Z,85.07
2022-10-25T23:48:00.271Z,85.08
2022-10-25T23:53:20.891Z,85.07
2022-10-25T23:58:41.928Z,84.93
